createdAt,value
2019-05-20T00:01:19.053Z,85.01
2019-05-20T00:04:32.555Z,85.26
2019-05-20T00:07:46.527Z,85.25
2019-05-20T00:11:00.351Z,85.66
2019-05-20T00:14:13.928Z,85.84
2019-05-20T00:17:27.679Z,85.65
2019-05-20T00:20:41.195Z,85.17
2019-05-20T00:23:54.667Z,85.21
2019-05-20T00:27:08.159Z,85.36
2019-05-20T00:30:21.751Z,85.21
2019-05-20T00:33:35.214Z,85.22
2019-05-20T00:36:48.915Z,85.64
2019-05-20T00:40:03.053Z,85.47
2019-05-20T00:43:16.822Z,85.18
2019-05-20T00:46:30.378Z,85.07
2019-05-20T00:49:43.861Z,84.88
2019-05-20T00:52:57.581Z,85.37
2019-05-20T00:56:11.060Z,85.82
2019-05-20T00:59:24.527Z,85.75
2019-05-20T01:02:38.135Z,85.27
2019-05-20T01:05:51.867Z,84.96
2019-05-20T01:09:07.091Z,85.85
2019-05-20T01:12:20.620Z,85.94
2019-05-20T01:15:34.219Z,85.99
2019-05-20T01:18:47.734Z,85.97
2019-05-20T01:22:01.605Z,85.80
2019-05-20T01:25:15.310Z,85.69
2019-05-20T01:28:28.941Z,85.83
2019-05-20T01:31:42.453Z,85.87
2019-05-20T01:34:55.946Z,86.09
2019-05-20T01:38:09.531Z,86.08
2019-05-20T01:41:23.250Z,86.02
2019-05-20T01:44:36.850Z,86.17
2019-05-20T01:47:50.350Z,86.26
2019-05-20T01:51:03.850Z,86.47
2019-05-20T01:54:17.445Z,86.75
2019-05-20T01:57:30.972Z,86.82
2019-05-20T02:00:44.980Z,86.85
2019-05-20T02:03:58.559Z,86.82
2019-05-20T02:07:12.621Z,86.98
2019-05-20T02:10:26.129Z,87.00
2019-05-20T02:13:51.640Z,86.77
2019-05-20T02:17:05.265Z,86.65
2019-05-20T02:20:18.867Z,86.88
2019-05-20T02:23:32.483Z,86.99
2019-05-20T02:26:45.983Z,86.67
2019-05-20T02:29:59.786Z,86.75
2019-05-20T02:33:13.477Z,86.73
2019-05-20T02:36:27.177Z,86.54
2019-05-20T02:39:41.037Z,86.39
2019-05-20T02:42:54.792Z,86.73
2019-05-20T02:46:08.492Z,86.65
2019-05-20T02:49:22.014Z,86.96
2019-05-20T02:52:35.521Z,86.92
2019-05-20T02:55:49.316Z,86.61
2019-05-20T02:59:03.422Z,86.82
2019-05-20T03:02:17.257Z,86.56
2019-05-20T03:05:30.750Z,86.35
2019-05-20T03:08:44.720Z,86.40
2019-05-20T03:11:58.348Z,86.60
2019-05-20T03:15:12.374Z,86.62
2019-05-20T03:18:26.143Z,86.90
2019-05-20T03:21:39.971Z,86.61
2019-05-20T03:24:53.562Z,86.83
2019-05-20T03:28:07.569Z,86.62
2019-05-20T03:31:21.241Z,87.21
2019-05-20T03:34:50.638Z,87.33
2019-05-20T03:37:50.271Z,87.46
2019-05-20T03:41:03.853Z,87.24
2019-05-20T03:44:17.456Z,86.94
2019-05-20T03:47:31.230Z,86.87
2019-05-20T03:50:44.836Z,86.66
2019-05-20T03:53:58.764Z,86.35
2019-05-20T03:57:12.482Z,86.38
2019-05-20T04:00:41.885Z,86.24
2019-05-20T04:03:55.635Z,86.64
2019-05-20T04:07:09.327Z,86.63
2019-05-20T04:10:22.945Z,86.69
2019-05-20T04:13:36.559Z,86.49
2019-05-20T04:16:51.182Z,86.54
2019-05-20T04:20:04.902Z,85.82
2019-05-20T04:23:18.894Z,85.99
2019-05-20T04:26:32.388Z,85.60
2019-05-20T04:29:45.949Z,86.08
2019-05-20T04:32:59.892Z,86.23
2019-05-20T04:36:13.478Z,85.77
2019-05-20T04:39:27.204Z,85.92
2019-05-20T04:42:41.092Z,86.46
2019-05-20T04:45:55.839Z,86.21
2019-05-20T04:49:09.471Z,86.28
2019-05-20T04:52:23.109Z,85.66
2019-05-20T04:55:36.631Z,85.58
2019-05-20T04:58:50.127Z,85.18
2019-05-20T05:02:03.748Z,85.02
2019-05-20T05:05:17.228Z,84.97
2019-05-20T05:08:30.820Z,84.39
2019-05-20T05:11:44.841Z,84.48
2019-05-20T05:16:38.536Z,83.95
2019-05-20T05:19:52.057Z,84.25
2019-05-20T05:23:06.180Z,84.51
2019-05-20T05:26:19.931Z,84.28
2019-05-20T05:29:33.563Z,84.05
2019-05-20T05:32:47.133Z,84.09
2019-05-20T05:36:01.046Z,84.89
2019-05-20T05:39:15.061Z,85.54
2019-05-20T05:42:28.685Z,85.06
2019-05-20T05:45:42.195Z,84.84
2019-05-20T05:48:55.789Z,84.46
2019-05-20T05:52:10.054Z,84.44
2019-05-20T05:55:23.752Z,83.65
2019-05-20T05:58:37.909Z,83.01
2019-05-20T06:01:51.555Z,82.88
2019-05-20T06:05:05.199Z,81.57
2019-05-20T06:08:19.101Z,81.39
2019-05-20T06:11:32.902Z,80.78
2019-05-20T06:14:46.775Z,80.28
2019-05-20T06:18:00.473Z,79.13
2019-05-20T06:21:14.516Z,79.11
2019-05-20T06:24:28.278Z,78.16
2019-05-20T06:27:42.051Z,77.94
2019-05-20T06:30:55.814Z,78.11
2019-05-20T06:34:09.469Z,76.83
2019-05-20T06:37:25.277Z,76.97
2019-05-20T06:40:39.010Z,76.03
2019-05-20T06:43:52.686Z,75.56
2019-05-20T06:47:06.323Z,75.86
2019-05-20T06:50:20.145Z,75.61
2019-05-20T06:53:34.007Z,74.92
2019-05-20T06:56:47.703Z,74.47
2019-05-20T07:00:01.551Z,73.45
2019-05-20T07:03:15.166Z,73.05
2019-05-20T07:06:44.725Z,73.19
2019-05-20T07:09:44.613Z,72.69
2019-05-20T07:12:58.107Z,73.54
2019-05-20T07:16:11.660Z,73.34
2019-05-20T07:19:25.330Z,72.71
2019-05-20T07:22:54.573Z,72.46
2019-05-20T07:25:54.650Z,71.95
2019-05-20T07:29:08.149Z,72.38
2019-05-20T07:32:21.768Z,71.12
2019-05-20T07:35:35.300Z,71.46
2019-05-20T07:38:48.937Z,71.69
2019-05-20T07:42:02.658Z,72.12
2019-05-20T07:45:16.353Z,72.03
2019-05-20T07:48:30.429Z,71.62
2019-05-20T07:51:44.722Z,71.69
2019-05-20T07:54:59.893Z,71.03
2019-05-20T07:58:15.497Z,70.30
2019-05-20T08:01:29.555Z,71.04
2019-05-20T08:04:43.399Z,71.15
2019-05-20T08:07:57.127Z,71.73
2019-05-20T08:11:11.312Z,71.27
2019-05-20T08:14:24.911Z,71.85
2019-05-20T08:17:38.674Z,71.80
2019-05-20T08:20:52.965Z,71.00
2019-05-20T08:24:06.695Z,70.97
2019-05-20T08:27:20.475Z,70.21
2019-05-20T08:30:35.497Z,69.26
2019-05-20T08:33:49.420Z,68.83
2019-05-20T08:37:03.149Z,69.25
2019-05-20T08:40:18.059Z,68.75
2019-05-20T08:43:31.614Z,68.60
2019-05-20T08:46:45.350Z,68.23
2019-05-20T08:49:58.917Z,68.08
2019-05-20T08:53:12.621Z,68.60
2019-05-20T08:56:26.316Z,67.25
2019-05-20T08:59:39.761Z,68.23
2019-05-20T09:02:53.599Z,68.32
2019-05-20T09:06:07.429Z,68.01
2019-05-20T09:09:21.198Z,68.16
2019-05-20T09:12:35.322Z,67.98
2019-05-20T09:15:49.097Z,67.99
2019-05-20T09:19:02.828Z,66.82
2019-05-20T09:22:16.659Z,67.44
2019-05-20T09:25:31.404Z,68.37
2019-05-20T09:28:45.061Z,67.27
2019-05-20T09:31:59.135Z,68.11
2019-05-20T09:35:12.889Z,69.11
2019-05-20T09:38:26.423Z,69.49
2019-05-20T09:41:40.820Z,69.12
2019-05-20T09:44:54.511Z,68.39
2019-05-20T09:48:09.675Z,66.76
2019-05-20T09:51:23.527Z,65.21
2019-05-20T09:54:37.370Z,65.58
2019-05-20T09:57:50.866Z,64.65
2019-05-20T10:01:04.697Z,64.97
2019-05-20T10:04:18.415Z,64.51
2019-05-20T10:07:31.953Z,64.64
2019-05-20T10:10:45.891Z,63.87
2019-05-20T10:13:59.429Z,63.69
2019-05-20T10:17:13.030Z,64.89
2019-05-20T10:20:26.820Z,64.51
2019-05-20T10:23:40.368Z,65.17
2019-05-20T10:26:53.858Z,63.68
2019-05-20T10:30:07.688Z,63.25
2019-05-20T10:33:21.374Z,61.85
2019-05-20T10:36:35.189Z,61.20
2019-05-20T10:39:48.929Z,63.36
2019-05-20T10:43:02.627Z,62.42
2019-05-20T10:46:16.308Z,60.21
2019-05-20T10:49:30.027Z,61.07
2019-05-20T10:52:43.664Z,59.81
2019-05-20T10:55:57.636Z,58.79
2019-05-20T10:59:12.416Z,54.73
2019-05-20T11:02:30.991Z,54.91
2019-05-20T11:05:42.431Z,56.21
2019-05-20T11:08:56.474Z,56.40
2019-05-20T11:12:10.009Z,55.93
2019-05-20T11:15:23.768Z,58.93
2019-05-20T11:18:37.280Z,60.42
2019-05-20T11:21:51.121Z,57.99
2019-05-20T11:25:04.977Z,59.13
2019-05-20T11:28:19.211Z,60.37
2019-05-20T11:31:33.023Z,61.61
2019-05-20T11:34:46.717Z,63.78
2019-05-20T11:38:00.566Z,66.52
2019-05-20T11:41:14.307Z,68.54
2019-05-20T11:44:28.086Z,70.42
2019-05-20T11:47:41.790Z,71.74
2019-05-20T11:50:55.386Z,72.24
2019-05-20T11:54:09.166Z,72.06
2019-05-20T11:57:22.815Z,71.75
2019-05-20T12:00:40.492Z,71.81
2019-05-20T12:03:54.064Z,71.91
2019-05-20T12:07:08.640Z,71.72
2019-05-20T12:10:22.611Z,72.44
2019-05-20T12:16:37.771Z,73.02
2019-05-20T12:19:51.628Z,73.26
2019-05-20T12:23:05.273Z,73.75
2019-05-20T12:26:22.458Z,74.53
2019-05-20T12:29:34.792Z,75.11
2019-05-20T12:32:48.482Z,75.50
2019-05-20T12:36:02.837Z,76.26
2019-05-20T12:39:16.559Z,75.90
2019-05-20T12:42:30.491Z,75.78
2019-05-20T12:45:44.252Z,75.71
2019-05-20T12:48:57.962Z,75.43
2019-05-20T12:52:11.658Z,75.36
2019-05-20T12:55:25.457Z,75.88
2019-05-20T12:58:39.284Z,76.48
2019-05-20T13:01:53.086Z,75.16
2019-05-20T13:05:06.969Z,75.78
2019-05-20T13:08:20.937Z,76.86
2019-05-20T13:11:34.744Z,76.88
2019-05-20T13:14:48.547Z,77.50
2019-05-20T13:18:02.335Z,76.43
2019-05-20T13:21:16.078Z,76.25
2019-05-20T13:24:29.758Z,75.70
2019-05-20T13:27:43.608Z,73.86
2019-05-20T13:30:57.238Z,73.62
2019-05-20T13:34:10.854Z,73.10
2019-05-20T13:37:24.359Z,71.26
2019-05-20T13:40:46.448Z,71.48
2019-05-20T13:43:53.424Z,72.10
2019-05-20T13:47:07.146Z,72.04
2019-05-20T13:50:20.986Z,72.20
2019-05-20T13:53:34.996Z,71.23
2019-05-20T13:56:48.932Z,69.16
2019-05-20T14:00:02.956Z,70.04
2019-05-20T14:03:16.671Z,67.53
2019-05-20T14:06:30.290Z,65.02
2019-05-20T14:09:43.894Z,64.25
2019-05-20T14:12:57.578Z,63.16
2019-05-20T14:16:11.401Z,62.79
2019-05-20T14:19:25.219Z,63.45
2019-05-20T14:22:38.879Z,63.71
2019-05-20T14:25:52.667Z,64.73
2019-05-20T14:29:06.500Z,64.01
2019-05-20T14:32:20.173Z,66.54
2019-05-20T14:35:34.356Z,66.23
2019-05-20T14:38:48.097Z,66.92
2019-05-20T14:42:01.872Z,66.84
2019-05-20T14:45:16.123Z,65.00
2019-05-20T14:48:29.917Z,66.06
2019-05-20T14:51:43.699Z,67.95
2019-05-20T14:54:57.372Z,69.30
2019-05-20T14:58:11.347Z,70.67
2019-05-20T15:01:25.187Z,71.43
2019-05-20T15:04:38.793Z,73.41
2019-05-20T15:07:52.473Z,72.81
2019-05-20T15:11:06.150Z,73.56
2019-05-20T15:14:19.910Z,74.37
2019-05-20T15:17:33.677Z,74.55
2019-05-20T15:20:47.833Z,74.56
2019-05-20T15:24:02.025Z,75.34
2019-05-20T15:27:15.800Z,75.35
2019-05-20T15:30:29.574Z,75.21
2019-05-20T15:33:43.327Z,74.95
2019-05-20T15:36:56.980Z,75.55
2019-05-20T15:40:11.132Z,75.22
2019-05-20T15:43:25.397Z,75.09
2019-05-20T15:46:39.043Z,74.93
2019-05-20T15:49:52.728Z,75.40
2019-05-20T15:53:11.060Z,75.09
2019-05-20T15:56:22.022Z,75.57
2019-05-20T15:59:45.368Z,74.31
2019-05-20T16:02:51.366Z,73.77
2019-05-20T16:06:05.343Z,74.28
2019-05-20T16:09:19.111Z,74.88
2019-05-20T16:12:34.400Z,75.46
2019-05-20T16:15:48.093Z,75.00
2019-05-20T16:19:01.722Z,75.24
2019-05-20T16:22:15.466Z,75.25
2019-05-20T16:25:29.226Z,76.29
2019-05-20T16:28:42.762Z,75.83
2019-05-20T16:31:56.738Z,75.29
2019-05-20T16:35:10.572Z,75.93
2019-05-20T16:38:24.305Z,76.15
2019-05-20T16:41:38.024Z,76.13
2019-05-20T16:44:51.598Z,76.37
2019-05-20T16:48:05.297Z,76.59
2019-05-20T16:51:22.080Z,77.12
2019-05-20T16:54:34.666Z,77.27
2019-05-20T16:57:48.290Z,77.40
2019-05-20T17:01:02.004Z,77.33
2019-05-20T17:04:15.703Z,77.48
2019-05-20T17:07:29.357Z,77.90
2019-05-20T17:10:43.383Z,78.87
2019-05-20T17:13:56.911Z,78.58
2019-05-20T17:17:10.940Z,78.73
2019-05-20T17:20:24.673Z,79.16
2019-05-20T17:23:38.285Z,79.08
2019-05-20T17:26:52.430Z,78.78
2019-05-20T17:30:06.446Z,78.13
2019-05-20T17:33:20.529Z,78.29
2019-05-20T17:36:34.546Z,78.67
2019-05-20T17:39:48.084Z,78.80
2019-05-20T17:43:01.840Z,78.65
2019-05-20T17:46:15.771Z,78.52
2019-05-20T17:49:31.420Z,78.48
2019-05-20T17:53:04.782Z,78.00
2019-05-20T17:56:18.872Z,78.08
2019-05-20T17:59:32.980Z,78.50
2019-05-20T18:02:46.997Z,78.76
2019-05-20T18:06:00.649Z,78.71
2019-05-20T18:09:14.799Z,78.57
2019-05-20T18:12:28.533Z,78.71
2019-05-20T18:15:42.570Z,78.57
2019-05-20T18:18:56.619Z,78.64
2019-05-20T18:22:10.268Z,78.03
2019-05-20T18:25:23.883Z,78.39
2019-05-20T18:28:37.965Z,78.66
2019-05-20T18:31:51.693Z,78.50
2019-05-20T18:35:05.833Z,78.47
2019-05-20T18:38:19.517Z,78.56
2019-05-20T18:41:33.130Z,78.25
2019-05-20T18:44:46.766Z,78.21
2019-05-20T18:48:00.726Z,78.09
2019-05-20T18:51:14.259Z,78.44
2019-05-20T18:54:27.766Z,78.13
2019-05-20T18:57:41.389Z,78.68
2019-05-20T19:00:54.904Z,79.27
2019-05-20T19:04:08.531Z,78.50
2019-05-20T19:07:22.257Z,78.79
2019-05-20T19:10:35.966Z,78.25
2019-05-20T19:13:49.700Z,78.20
2019-05-20T19:17:03.403Z,78.49
2019-05-20T19:20:17.140Z,79.07
2019-05-20T19:23:30.748Z,78.56
2019-05-20T19:26:44.323Z,78.68
2019-05-20T19:29:57.951Z,78.76
2019-05-20T19:33:11.776Z,79.09
2019-05-20T19:36:25.496Z,78.36
2019-05-20T19:39:39.036Z,78.95
2019-05-20T19:42:52.773Z,79.36
2019-05-20T19:46:06.501Z,79.09
2019-05-20T19:49:20.172Z,78.82
2019-05-20T19:52:34.439Z,79.41
2019-05-20T19:55:47.955Z,78.53
2019-05-20T19:59:01.682Z,78.56
2019-05-20T20:02:17.746Z,78.30
2019-05-20T20:05:30.924Z,79.24
2019-05-20T20:08:44.747Z,79.19
2019-05-20T20:11:58.361Z,79.38
2019-05-20T20:15:16.443Z,79.08
2019-05-20T20:18:29.965Z,79.03
2019-05-20T20:21:43.507Z,79.19
2019-05-20T20:24:57.277Z,79.47
2019-05-20T20:28:10.927Z,79.40
2019-05-20T20:31:24.821Z,79.87
2019-05-20T20:34:38.307Z,79.40
2019-05-20T20:37:51.919Z,79.41
2019-05-20T20:41:05.669Z,79.40
2019-05-20T20:44:19.225Z,79.49
2019-05-20T20:47:41.383Z,79.46
2019-05-20T20:50:48.378Z,79.74
2019-05-20T20:54:02.014Z,79.92
2019-05-20T20:57:15.709Z,80.00
2019-05-20T21:00:29.310Z,79.58
2019-05-20T21:03:43.106Z,79.86
2019-05-20T21:06:56.615Z,79.71
2019-05-20T21:10:10.430Z,80.13
2019-05-20T21:16:44.480Z,80.18
2019-05-20T21:19:58.170Z,79.97
2019-05-20T21:23:11.816Z,80.05
2019-05-20T21:26:25.302Z,80.16
2019-05-20T21:29:38.933Z,80.37
2019-05-20T21:33:07.610Z,80.15
2019-05-20T21:36:07.947Z,80.25
2019-05-20T21:39:21.603Z,79.99
2019-05-20T21:42:35.487Z,79.83
2019-05-20T21:45:48.978Z,80.14
2019-05-20T21:49:02.921Z,79.96
2019-05-20T21:52:16.442Z,79.58
2019-05-20T21:55:30.069Z,79.95
2019-05-20T21:58:43.564Z,79.75
2019-05-20T22:01:57.063Z,79.58
2019-05-20T22:05:11.197Z,79.76
2019-05-20T22:08:24.801Z,79.74
2019-05-20T22:11:38.318Z,79.51
2019-05-20T22:14:52.145Z,80.07
2019-05-20T22:18:05.744Z,80.43
2019-05-20T22:21:23.654Z,79.94
2019-05-20T22:24:37.528Z,80.17
2019-05-20T22:27:51.355Z,80.12
2019-05-20T22:31:04.841Z,80.52
2019-05-20T22:34:18.553Z,80.62
2019-05-20T22:37:32.457Z,81.01
2019-05-20T22:40:45.973Z,80.43
2019-05-20T22:44:00.096Z,79.82
2019-05-20T22:47:13.905Z,80.33
2019-05-20T22:50:27.745Z,80.69
2019-05-20T22:53:41.298Z,80.57
2019-05-20T22:56:55.181Z,79.96
2019-05-20T23:00:08.869Z,80.01
2019-05-20T23:03:23.115Z,79.88
2019-05-20T23:15:42.304Z,80.48
2019-05-20T23:18:55.815Z,81.13
2019-05-20T23:22:10.347Z,81.19
2019-05-20T23:25:23.831Z,80.99
2019-05-20T23:28:37.419Z,80.75
2019-05-20T23:31:50.914Z,80.23
2019-05-20T23:35:04.766Z,80.39
2019-05-20T23:38:18.282Z,80.21
2019-05-20T23:41:32.199Z,80.21
2019-05-20T23:44:45.698Z,80.41
2019-05-20T23:47:59.202Z,80.53
2019-05-20T23:51:13.229Z,80.19
2019-05-20T23:54:26.711Z,79.80
2019-05-20T23:57:40.318Z,80.07
